Time;durP1;ratioP1;P1;durP2;ratioP2;P2;SDS_P1;SDS_P2;PMS_P1;PMS_P2;Temp;Humidity;BMP_temperature;BMP_pressure;BME280_temperature;BME280_humidity;BME280_pressure;Samples;Min_cycle;Max_cycle;Signal;HPM_P1;HPM_P2
2024/01/11 00:01:02;;;;;;;;;;;-0.50;99.90;;;;;;5048615;28;19915;-79
2024/01/11 00:03:27;;;;;;;;;;;-0.40;99.90;;;;;;5063525;28;19920;-79
2024/01/11 00:05:52;;;;;;;;;;;-0.60;99.90;;;;;;5052962;28;20555;-79
2024/01/11 00:08:18;;;;;;;;;;;-0.50;99.90;;;;;;5068338;28;20348;-79
2024/01/11 00:10:43;;;;;;;;;;;-0.60;99.90;;;;;;5068943;28;20398;-79
2024/01/11 00:13:09;;;;;;;;;;;-0.60;99.90;;;;;;5070769;28;19916;-79
2024/01/11 00:15:34;;;;;;;;;;;-0.50;99.90;;;;;;5069054;28;19935;-79
2024/01/11 00:18:00;;;;;;;;;;;-0.50;99.90;;;;;;5051494;28;19912;-79
2024/01/11 00:20:25;;;;;;;;;;;-0.60;99.90;;;;;;5067649;28;19908;-79
2024/01/11 00:22:51;;;;;;;;;;;-0.60;99.90;;;;;;5067082;28;20276;-80
2024/01/11 00:25:16;;;;;;;;;;;-0.60;99.90;;;;;;5069433;28;20320;-80
2024/01/11 00:27:41;;;;;;;;;;;-0.60;99.90;;;;;;5069784;28;19958;-79
2024/01/11 00:30:07;;;;;;;;;;;-0.60;99.90;;;;;;5067641;28;19912;-79
2024/01/11 00:32:33;;;;;;;;;;;-0.60;99.90;;;;;;5068875;28;19920;-79
2024/01/11 00:34:58;;;;;;;;;;;-0.70;99.90;;;;;;5068691;28;19919;-79
2024/01/11 00:37:24;;;;;;;;;;;-0.60;99.90;;;;;;5070633;28;19921;-79
2024/01/11 00:39:50;;;;;;;;;;;-0.60;99.90;;;;;;5068832;28;19982;-79
2024/01/11 00:42:16;;;;;;;;;;;-0.60;99.90;;;;;;5048901;28;20392;-79
2024/01/11 00:44:41;;;;;;;;;;;-0.60;99.90;;;;;;5068884;28;19931;-79
2024/01/11 00:47:06;;;;;;;;;;;-0.60;99.90;;;;;;5066032;28;19987;-80
2024/01/11 00:49:32;;;;;;;;;;;-0.70;99.90;;;;;;5048281;28;19940;-79
2024/01/11 00:51:57;;;;;;;;;;;-0.70;99.90;;;;;;5065873;28;19912;-79
2024/01/11 00:57:11;;;;;;;;;;;-0.70;99.90;;;;;;5046292;28;19928;-79
2024/01/11 00:59:36;;;;;;;;;;;-0.70;99.90;;;;;;5067676;28;19928;-79
2024/01/11 01:02:02;;;;;;;;;;;-0.60;99.90;;;;;;5069525;28;19908;-79
2024/01/11 01:04:27;;;;;;;;;;;-0.60;99.90;;;;;;5069753;28;19913;-79
2024/01/11 01:06:53;;;;;;;;;;;-0.60;99.90;;;;;;5068005;28;20010;-79
2024/01/11 01:09:18;;;;;;;;;;;-0.60;99.90;;;;;;5070513;28;19962;-79
2024/01/11 01:11:43;;;;;;;;;;;-0.70;99.90;;;;;;5069371;28;19927;-79
2024/01/11 01:14:09;;;;;;;;;;;-0.70;99.90;;;;;;5069692;28;19916;-80
2024/01/11 01:16:35;;;;;;;;;;;-0.70;99.90;;;;;;5049979;28;19938;-79
2024/01/11 01:19:00;;;;;;;;;;;-0.70;99.90;;;;;;5066940;28;20368;-79
2024/01/11 01:21:26;;;;;;;;;;;-0.60;99.90;;;;;;5068348;28;19937;-79
2024/01/11 01:23:52;;;;;;;;;;;-0.70;99.90;;;;;;5068528;28;20014;-79
2024/01/11 01:26:18;;;;;;;;;;;-0.60;99.90;;;;;;5054646;28;19924;-79
2024/01/11 01:28:43;;;;;;;;;;;-0.60;99.90;;;;;;5068582;28;19912;-79
2024/01/11 01:31:09;;;;;;;;;;;-0.60;99.90;;;;;;5048753;28;19916;-80
2024/01/11 01:33:35;;;;;;;;;;;-0.60;99.90;;;;;;5065695;28;20451;-79
2024/01/11 01:36:00;;;;;;;;;;;-0.60;99.90;;;;;;5068781;28;20001;-79
2024/01/11 01:38:26;;;;;;;;;;;-0.60;99.90;;;;;;5068516;28;19912;-79
2024/01/11 01:40:51;;;;;;;;;;;-0.70;99.90;;;;;;5050124;28;19994;-79
2024/01/11 01:43:17;;;;;;;;;;;-0.70;99.90;;;;;;5067571;28;19915;-79
2024/01/11 01:45:42;;;;;;;;;;;-0.70;99.90;;;;;;5048421;28;19919;-79
2024/01/11 01:48:08;;;;;;;;;;;-0.70;99.90;;;;;;5071838;28;19919;-79
2024/01/11 01:50:33;;;;;;;;;;;-0.60;99.90;;;;;;5069016;28;19948;-79
2024/01/11 01:52:59;;;;;;;;;;;-0.60;99.90;;;;;;5050019;28;20361;-79
2024/01/11 01:55:25;;;;;;;;;;;-0.50;99.90;;;;;;5069057;28;19922;-79
2024/01/11 01:57:51;;;;;;;;;;;-0.50;99.90;;;;;;5070781;28;19912;-79
2024/01/11 02:00:16;;;;;;;;;;;-0.50;99.90;;;;;;5071115;28;19916;-79
2024/01/11 02:02:43;;;;;;;;;;;-0.50;99.90;;;;;;5053850;28;19915;-79
2024/01/11 02:05:09;;;;;;;;;;;-0.50;99.90;;;;;;5071303;28;19959;-79
2024/01/11 02:07:35;;;;;;;;;;;-0.50;99.90;;;;;;5067652;28;19958;-79
2024/01/11 02:10:01;;;;;;;;;;;-0.50;99.90;;;;;;5071546;28;19956;-79
2024/01/11 02:12:26;;;;;;;;;;;-0.40;99.90;;;;;;5070199;28;19908;-79
2024/01/11 02:14:53;;;;;;;;;;;-0.50;99.90;;;;;;5054720;28;19916;-79
2024/01/11 02:17:18;;;;;;;;;;;-0.50;99.90;;;;;;5069334;28;19921;-79
2024/01/11 02:19:44;;;;;;;;;;;-0.60;99.90;;;;;;5072767;28;19942;-79
2024/01/11 02:22:15;;;;;;;;;;;-0.60;99.90;;;;;;5064986;28;20292;-79
2024/01/11 02:24:40;;;;;;;;;;;-0.50;99.90;;;;;;5068273;28;20484;-79
2024/01/11 02:27:06;;;;;;;;;;;-0.60;99.90;;;;;;5071057;28;19915;-79
2024/01/11 02:29:31;;;;;;;;;;;-0.50;99.90;;;;;;5072109;28;19908;-79
2024/01/11 02:31:58;;;;;;;;;;;-0.50;99.90;;;;;;5053832;28;19915;-79
2024/01/11 02:34:24;;;;;;;;;;;-0.50;99.90;;;;;;5073072;28;19912;-79
2024/01/11 02:36:50;;;;;;;;;;;-0.40;99.90;;;;;;5071077;28;19943;-79
2024/01/11 02:39:16;;;;;;;;;;;-0.40;99.90;;;;;;5069112;28;19982;-79
2024/01/11 02:41:43;;;;;;;;;;;-0.40;99.90;;;;;;5051823;28;19908;-79
2024/01/11 02:44:08;;;;;;;;;;;-0.40;99.90;;;;;;5071299;28;20343;-79
2024/01/11 02:46:34;;;;;;;;;;;-0.50;99.90;;;;;;5071134;28;19944;-79
2024/01/11 02:48:59;;;;;;;;;;;-0.50;99.90;;;;;;5070823;28;19948;-79
2024/01/11 02:51:24;;;;;;;;;;;-0.50;99.90;;;;;;5047201;28;20400;-78
2024/01/11 02:53:50;;;;;;;;;;;-0.50;99.90;;;;;;5066819;28;19908;-78
2024/01/11 02:56:15;;;;;;;;;;;-0.50;99.90;;;;;;5063509;28;19925;-79
2024/01/11 02:58:41;;;;;;;;;;;-0.50;99.90;;;;;;5069229;28;19908;-80
2024/01/11 03:01:06;;;;;;;;;;;-0.60;99.90;;;;;;5070753;28;19908;-79
2024/01/11 03:03:31;;;;;;;;;;;-0.60;99.90;;;;;;5071673;28;19912;-79
2024/01/11 03:05:57;;;;;;;;;;;-0.50;99.90;;;;;;5072024;28;19909;-79
2024/01/11 03:08:22;;;;;;;;;;;-0.50;99.90;;;;;;5071244;28;20003;-79
2024/01/11 03:10:48;;;;;;;;;;;-0.50;99.90;;;;;;5050953;28;19913;-79
2024/01/11 03:13:13;;;;;;;;;;;-0.50;99.90;;;;;;5070922;28;19912;-79
2024/01/11 03:15:39;;;;;;;;;;;-0.60;99.90;;;;;;5072101;28;19912;-79
2024/01/11 03:18:04;;;;;;;;;;;-0.60;99.90;;;;;;5071491;28;20253;-79
2024/01/11 03:20:30;;;;;;;;;;;-0.60;99.90;;;;;;5071942;28;19908;-79
2024/01/11 03:22:55;;;;;;;;;;;-0.60;99.90;;;;;;5070765;28;19927;-79
2024/01/11 03:25:20;;;;;;;;;;;-0.60;99.90;;;;;;5070075;28;20021;-79
2024/01/11 03:27:46;;;;;;;;;;;-0.60;99.90;;;;;;5069997;28;19912;-79
2024/01/11 03:30:11;;;;;;;;;;;-0.60;99.90;;;;;;5068041;28;19915;-79
2024/01/11 03:32:38;;;;;;;;;;;-0.50;99.90;;;;;;5069835;28;20002;-79
2024/01/11 03:35:05;;;;;;;;;;;-0.50;99.90;;;;;;5053204;28;20539;-79
2024/01/11 03:37:31;;;;;;;;;;;-0.40;99.90;;;;;;5070086;28;19916;-79
2024/01/11 03:39:56;;;;;;;;;;;-0.40;99.90;;;;;;5070674;28;19961;-79
2024/01/11 03:42:22;;;;;;;;;;;-0.50;99.90;;;;;;5070100;28;20377;-79
2024/01/11 03:44:47;;;;;;;;;;;-0.50;99.90;;;;;;5066237;28;19912;-79
2024/01/11 03:47:13;;;;;;;;;;;-0.50;99.90;;;;;;5068525;28;19913;-79
2024/01/11 03:49:38;;;;;;;;;;;-0.40;99.90;;;;;;5052336;28;20396;-79
2024/01/11 03:52:04;;;;;;;;;;;-0.40;99.90;;;;;;5066843;28;19916;-79
2024/01/11 03:54:29;;;;;;;;;;;-0.50;99.90;;;;;;5053192;28;19916;-79
2024/01/11 03:56:55;;;;;;;;;;;-0.40;99.90;;;;;;5069319;28;19920;-79
2024/01/11 03:59:20;;;;;;;;;;;-0.50;99.90;;;;;;5050660;28;19913;-79
2024/01/11 04:01:46;;;;;;;;;;;-0.40;99.90;;;;;;5066071;28;19912;-79
2024/01/11 04:04:12;;;;;;;;;;;-0.40;99.90;;;;;;5070062;28;19908;-79
2024/01/11 04:06:37;;;;;;;;;;;-0.40;99.90;;;;;;5062006;28;19908;-79
2024/01/11 04:09:03;;;;;;;;;;;-0.40;99.90;;;;;;5065591;28;19973;-79
2024/01/11 04:11:29;;;;;;;;;;;-0.50;99.90;;;;;;5071218;28;19913;-79
2024/01/11 04:13:55;;;;;;;;;;;-0.50;99.90;;;;;;5070313;28;19922;-79
2024/01/11 04:16:20;;;;;;;;;;;-0.50;99.90;;;;;;5069498;28;19971;-79
2024/01/11 04:18:46;;;;;;;;;;;-0.50;99.90;;;;;;5069909;28;19916;-79
2024/01/11 04:21:24;;;;;;;;;;;-0.50;99.90;;;;;;5065994;28;20353;-78
2024/01/11 04:23:50;;;;;;;;;;;-0.40;99.90;;;;;;5071030;28;20022;-79
2024/01/11 04:26:16;;;;;;;;;;;-0.40;99.90;;;;;;5068223;28;20463;-79
2024/01/11 04:28:42;;;;;;;;;;;-0.30;99.90;;;;;;5070109;28;20276;-79
2024/01/11 04:31:10;;;;;;;;;;;-0.30;99.90;;;;;;5048766;28;19916;-79
2024/01/11 04:33:39;;;;;;;;;;;-0.40;99.90;;;;;;5069821;28;20003;-79
2024/01/11 04:36:05;;;;;;;;;;;-0.30;99.90;;;;;;5070824;28;19927;-79
2024/01/11 04:38:30;;;;;;;;;;;-0.40;99.90;;;;;;5071314;28;19991;-79
2024/01/11 04:40:56;;;;;;;;;;;-0.40;99.90;;;;;;5069768;28;19987;-79
2024/01/11 04:43:21;;;;;;;;;;;-0.40;99.90;;;;;;5069119;28;20003;-79
2024/01/11 04:45:47;;;;;;;;;;;-0.40;99.90;;;;;;5065383;28;20682;-79
2024/01/11 04:48:13;;;;;;;;;;;-0.40;99.90;;;;;;5067389;28;19985;-79
2024/01/11 04:50:38;;;;;;;;;;;-0.50;99.90;;;;;;5062722;28;19944;-79
2024/01/11 04:53:04;;;;;;;;;;;-0.50;99.90;;;;;;5051346;28;19918;-79
2024/01/11 04:55:29;;;;;;;;;;;-0.40;99.90;;;;;;5065948;28;19913;-79
2024/01/11 04:57:55;;;;;;;;;;;-0.50;99.90;;;;;;5052402;28;20360;-79
2024/01/11 05:00:20;;;;;;;;;;;-0.50;99.90;;;;;;5065965;28;19908;-79
2024/01/11 05:02:46;;;;;;;;;;;-0.50;99.90;;;;;;5067517;28;19908;-79
2024/01/11 05:05:11;;;;;;;;;;;-0.50;99.90;;;;;;5070298;28;19990;-79
2024/01/11 05:07:36;;;;;;;;;;;-0.50;99.90;;;;;;5051681;28;19912;-79
2024/01/11 05:10:02;;;;;;;;;;;-0.40;99.90;;;;;;5071332;28;19923;-79
2024/01/11 05:12:28;;;;;;;;;;;-0.40;99.90;;;;;;5069395;28;19919;-79
2024/01/11 05:14:53;;;;;;;;;;;-0.40;99.90;;;;;;5052135;28;19943;-79
2024/01/11 05:17:18;;;;;;;;;;;-0.40;99.90;;;;;;5067734;28;19955;-79
2024/01/11 05:19:44;;;;;;;;;;;-0.40;99.90;;;;;;5056736;28;19959;-79
2024/01/11 05:22:09;;;;;;;;;;;-0.30;99.90;;;;;;5070325;28;19916;-79
2024/01/11 05:24:35;;;;;;;;;;;-0.30;99.90;;;;;;5067931;28;19917;-79
2024/01/11 05:27:00;;;;;;;;;;;-0.40;99.90;;;;;;5069943;28;19916;-79
2024/01/11 05:29:26;;;;;;;;;;;-0.40;99.90;;;;;;5068215;28;19908;-79
2024/01/11 05:31:51;;;;;;;;;;;-0.40;99.90;;;;;;5069063;28;19908;-79
2024/01/11 05:34:16;;;;;;;;;;;-0.40;99.90;;;;;;5050333;28;20324;-79
2024/01/11 05:36:42;;;;;;;;;;;-0.30;99.90;;;;;;5068660;28;20445;-79
2024/01/11 05:39:07;;;;;;;;;;;-0.40;99.90;;;;;;5069423;28;20376;-79
2024/01/11 05:41:33;;;;;;;;;;;-0.30;99.90;;;;;;5049668;28;20018;-79
2024/01/11 05:43:58;;;;;;;;;;;-0.30;99.90;;;;;;5061256;28;19943;-79
2024/01/11 05:46:24;;;;;;;;;;;-0.40;99.90;;;;;;5067935;28;19959;-79
2024/01/11 05:48:49;;;;;;;;;;;-0.40;99.90;;;;;;5036265;28;19913;-79
2024/01/11 05:51:15;;;;;;;;;;;-0.40;99.90;;;;;;5068268;28;19966;-79
2024/01/11 05:53:40;;;;;;;;;;;-0.40;99.90;;;;;;5069983;28;19909;-79
2024/01/11 05:56:09;;;;;;;;;;;-0.40;99.90;;;;;;5069442;28;20319;-79
2024/01/11 05:58:36;;;;;;;;;;;-0.30;99.90;;;;;;5051391;28;19912;-79
2024/01/11 06:01:02;;;;;;;;;;;-0.40;99.90;;;;;;5063637;28;19908;-79
2024/01/11 06:03:28;;;;;;;;;;;-0.40;99.90;;;;;;5063735;28;20403;-79
2024/01/11 06:05:53;;;;;;;;;;;-0.40;99.90;;;;;;5058325;28;19916;-79
2024/01/11 06:08:18;;;;;;;;;;;-0.40;99.90;;;;;;5061806;28;19953;-79
2024/01/11 06:10:44;;;;;;;;;;;-0.40;99.90;;;;;;5051291;28;19958;-79
2024/01/11 06:13:10;;;;;;;;;;;-0.40;99.90;;;;;;5065453;28;19917;-79
2024/01/11 06:15:35;;;;;;;;;;;-0.40;99.90;;;;;;5050029;28;19912;-79
2024/01/11 06:18:00;;;;;;;;;;;-0.40;99.90;;;;;;5051469;28;20414;-79
2024/01/11 06:20:26;;;;;;;;;;;-0.40;99.90;;;;;;5046980;28;19954;-79
2024/01/11 06:22:51;;;;;;;;;;;-0.40;99.90;;;;;;5066716;28;20356;-79
2024/01/11 06:25:18;;;;;;;;;;;-0.40;99.90;;;;;;5068920;28;19916;-79
2024/01/11 06:27:43;;;;;;;;;;;-0.40;99.90;;;;;;5051813;28;19912;-79
2024/01/11 06:30:09;;;;;;;;;;;-0.40;99.90;;;;;;5056888;28;20383;-79
2024/01/11 06:32:35;;;;;;;;;;;-0.40;99.90;;;;;;5064466;28;19951;-80
2024/01/11 06:35:00;;;;;;;;;;;-0.40;99.90;;;;;;5066893;28;19909;-79
2024/01/11 06:37:26;;;;;;;;;;;-0.30;99.90;;;;;;5065009;28;19916;-79
2024/01/11 06:39:52;;;;;;;;;;;-0.40;99.90;;;;;;5064924;28;19916;-79
2024/01/11 06:42:17;;;;;;;;;;;-0.40;99.90;;;;;;5067408;28;19933;-78
2024/01/11 06:44:42;;;;;;;;;;;-0.40;99.90;;;;;;5070884;28;19908;-78
2024/01/11 06:47:08;;;;;;;;;;;-0.40;99.90;;;;;;5073283;28;19919;-79
2024/01/11 06:49:33;;;;;;;;;;;-0.40;99.90;;;;;;5073530;28;19909;-78
2024/01/11 06:51:59;;;;;;;;;;;-0.40;99.90;;;;;;5054174;28;19951;-79
2024/01/11 06:54:24;;;;;;;;;;;-0.30;99.90;;;;;;5071520;28;20361;-78
2024/01/11 06:56:50;;;;;;;;;;;-0.40;99.90;;;;;;5072659;28;19924;-79
2024/01/11 06:59:15;;;;;;;;;;;-0.40;99.90;;;;;;5072518;28;19915;-78
2024/01/11 07:01:41;;;;;;;;;;;-0.40;99.90;;;;;;5072797;28;19917;-78
2024/01/11 07:04:07;;;;;;;;;;;-0.40;99.90;;;;;;5053755;28;19908;-78
2024/01/11 07:06:33;;;;;;;;;;;-0.40;99.90;;;;;;5073267;28;20275;-78
2024/01/11 07:08:58;;;;;;;;;;;-0.40;99.90;;;;;;5055072;28;19920;-78
2024/01/11 07:11:24;;;;;;;;;;;-0.40;99.90;;;;;;5072598;28;19973;-79
2024/01/11 07:13:49;;;;;;;;;;;-0.40;99.90;;;;;;5072588;28;19912;-79
2024/01/11 07:16:15;;;;;;;;;;;-0.40;99.90;;;;;;5072393;28;20015;-79
2024/01/11 07:18:40;;;;;;;;;;;-0.40;99.90;;;;;;5071843;28;20006;-78
2024/01/11 07:21:06;;;;;;;;;;;-0.30;99.90;;;;;;5072386;28;19943;-78
2024/01/11 07:23:31;;;;;;;;;;;-0.40;99.90;;;;;;5072979;28;19973;-79
2024/01/11 07:25:57;;;;;;;;;;;-0.30;99.90;;;;;;5054930;28;19911;-79
2024/01/11 07:28:25;;;;;;;;;;;-0.30;99.90;;;;;;5054980;28;19904;-79
2024/01/11 07:30:51;;;;;;;;;;;-0.30;99.90;;;;;;5072566;28;19969;-78
2024/01/11 07:33:17;;;;;;;;;;;-0.30;99.90;;;;;;5052969;28;19909;-79
2024/01/11 07:35:42;;;;;;;;;;;-0.40;99.90;;;;;;5071971;28;19912;-79
2024/01/11 07:38:08;;;;;;;;;;;-0.40;99.90;;;;;;5072331;28;19912;-79
2024/01/11 07:40:33;;;;;;;;;;;-0.30;99.90;;;;;;5054340;28;19975;-78
2024/01/11 07:42:58;;;;;;;;;;;-0.30;99.90;;;;;;5061727;28;19908;-79
2024/01/11 07:45:24;;;;;;;;;;;-0.40;99.90;;;;;;5072734;28;20203;-78
2024/01/11 07:47:49;;;;;;;;;;;-0.40;99.90;;;;;;5071338;28;20613;-79
2024/01/11 07:50:15;;;;;;;;;;;-0.40;99.90;;;;;;5073716;28;19912;-79
2024/01/11 07:52:43;;;;;;;;;;;-0.30;99.90;;;;;;5072093;28;20356;-79
2024/01/11 07:55:10;;;;;;;;;;;-0.30;99.90;;;;;;5066391;28;19916;-78
2024/01/11 07:57:39;;;;;;;;;;;-0.30;99.90;;;;;;5059309;28;20300;-80
2024/01/11 08:00:08;;;;;;;;;;;-0.30;99.90;;;;;;5061750;28;19909;-78
2024/01/11 08:02:33;;;;;;;;;;;-0.30;99.90;;;;;;5059866;28;19913;-78
2024/01/11 08:05:02;;;;;;;;;;;-0.40;99.90;;;;;;5060171;28;20280;-78
2024/01/11 08:07:28;;;;;;;;;;;-0.40;99.90;;;;;;5060198;28;19924;-78
2024/01/11 08:09:53;;;;;;;;;;;-0.30;99.90;;;;;;5060127;28;19921;-76
2024/01/11 08:12:19;;;;;;;;;;;-0.30;99.90;;;;;;5059238;28;19939;-76
2024/01/11 08:14:46;;;;;;;;;;;-0.20;99.90;;;;;;5061710;28;19916;-76
2024/01/11 08:17:13;;;;;;;;;;;-0.20;99.90;;;;;;5060504;28;19925;-76
2024/01/11 08:19:39;;;;;;;;;;;-0.20;99.90;;;;;;5062612;28;19993;-79
2024/01/11 08:22:06;;;;;;;;;;;-0.20;99.90;;;;;;5071355;28;20439;-80
2024/01/11 08:24:31;;;;;;;;;;;-0.20;99.90;;;;;;5070159;28;19999;-79
2024/01/11 08:26:57;;;;;;;;;;;-0.30;99.90;;;;;;5051139;28;19947;-79
2024/01/11 08:29:23;;;;;;;;;;;-0.20;99.90;;;;;;5060777;28;20026;-80
2024/01/11 08:31:48;;;;;;;;;;;-0.20;99.90;;;;;;5045028;28;19935;-79
2024/01/11 08:34:14;;;;;;;;;;;-0.10;99.90;;;;;;5068081;28;20399;-80
2024/01/11 08:36:39;;;;;;;;;;;-0.10;99.90;;;;;;5038933;28;19924;-80
2024/01/11 08:39:05;;;;;;;;;;;-0.10;99.90;;;;;;5063296;28;19969;-80
2024/01/11 08:41:31;;;;;;;;;;;-0.10;99.90;;;;;;5071384;28;20328;-81
2024/01/11 08:43:57;;;;;;;;;;;-0.10;99.90;;;;;;5070560;28;19940;-80
2024/01/11 08:46:26;;;;;;;;;;;0.00;99.90;;;;;;5052030;28;19914;-79
2024/01/11 08:48:52;;;;;;;;;;;-0.10;99.90;;;;;;5069123;28;20315;-80
2024/01/11 08:51:17;;;;;;;;;;;0.00;99.90;;;;;;5067906;28;19908;-80
2024/01/11 08:53:42;;;;;;;;;;;0.00;99.90;;;;;;5069519;28;20303;-80
2024/01/11 08:56:08;;;;;;;;;;;0.10;99.90;;;;;;5068830;28;19916;-79
2024/01/11 08:58:33;;;;;;;;;;;0.10;99.90;;;;;;5050896;28;19966;-79
2024/01/11 09:00:59;;;;;;;;;;;0.10;99.90;;;;;;5071284;28;19954;-79
2024/01/11 09:03:24;;;;;;;;;;;0.10;99.90;;;;;;5052352;28;20011;-79
2024/01/11 09:05:50;;;;;;;;;;;0.10;99.90;;;;;;5052687;28;19911;-79
2024/01/11 09:08:16;;;;;;;;;;;0.10;99.90;;;;;;5052299;28;19916;-79
2024/01/11 09:10:41;;;;;;;;;;;0.20;99.90;;;;;;5047209;28;19969;-79
2024/01/11 09:13:07;;;;;;;;;;;0.20;99.90;;;;;;5068228;28;19908;-79
2024/01/11 09:15:33;;;;;;;;;;;0.30;99.90;;;;;;5055375;28;20003;-75
2024/01/11 09:18:02;;;;;;;;;;;0.30;99.90;;;;;;5059594;28;20551;-74
2024/01/11 09:20:28;;;;;;;;;;;0.30;99.90;;;;;;5044789;28;19908;-79
2024/01/11 09:22:53;;;;;;;;;;;0.30;99.90;;;;;;5049503;28;20363;-77
2024/01/11 09:25:19;;;;;;;;;;;0.30;99.90;;;;;;5051409;28;19912;-77
2024/01/11 09:27:44;;;;;;;;;;;0.30;99.90;;;;;;5070726;28;19920;-77
2024/01/11 09:30:10;;;;;;;;;;;0.40;99.90;;;;;;5069642;28;20338;-77
2024/01/11 09:32:35;;;;;;;;;;;0.40;99.90;;;;;;5065670;28;20650;-77
2024/01/11 09:35:02;;;;;;;;;;;0.40;99.90;;;;;;5067235;28;19961;-78
2024/01/11 09:37:28;;;;;;;;;;;0.40;99.90;;;;;;5069892;28;20015;-77
2024/01/11 09:39:53;;;;;;;;;;;0.50;99.90;;;;;;5067764;28;20007;-79
2024/01/11 09:42:18;;;;;;;;;;;0.50;99.90;;;;;;5069826;28;20069;-76
2024/01/11 09:44:44;;;;;;;;;;;0.50;99.90;;;;;;5058951;28;20014;-76
2024/01/11 09:47:10;;;;;;;;;;;0.50;99.90;;;;;;5036589;28;20657;-76
2024/01/11 09:49:40;;;;;;;;;;;0.60;99.90;;;;;;5051408;28;20820;-77
2024/01/11 09:52:08;;;;;;;;;;;0.60;99.90;;;;;;5069154;28;19928;-77
2024/01/11 09:54:34;;;;;;;;;;;0.60;99.90;;;;;;5069057;28;20057;-76
2024/01/11 09:57:03;;;;;;;;;;;0.60;99.90;;;;;;5066784;28;19920;-77
2024/01/11 09:59:28;;;;;;;;;;;0.70;99.90;;;;;;5069661;28;20378;-78
2024/01/11 10:01:54;;;;;;;;;;;0.70;99.90;;;;;;5043704;28;20003;-77
2024/01/11 10:04:19;;;;;;;;;;;0.70;99.90;;;;;;5061828;28;20017;-77
2024/01/11 10:06:45;;;;;;;;;;;0.70;99.90;;;;;;5067791;28;19935;-77
2024/01/11 10:09:10;;;;;;;;;;;0.70;99.90;;;;;;5050481;28;20261;-77
2024/01/11 10:11:36;;;;;;;;;;;0.70;99.90;;;;;;5051208;28;19943;-77
2024/01/11 10:14:01;;;;;;;;;;;0.70;99.90;;;;;;5050265;28;19908;-78
2024/01/11 10:16:29;;;;;;;;;;;0.70;99.90;;;;;;5062837;28;19921;-78
2024/01/11 10:18:55;;;;;;;;;;;0.70;99.90;;;;;;5053091;28;19923;-77
2024/01/11 10:21:21;;;;;;;;;;;0.70;99.90;;;;;;5068824;28;19908;-78
2024/01/11 10:23:47;;;;;;;;;;;0.70;99.90;;;;;;5073093;28;20272;-78
2024/01/11 10:26:15;;;;;;;;;;;0.70;99.90;;;;;;5073212;28;19912;-77
2024/01/11 10:28:44;;;;;;;;;;;0.80;99.90;;;;;;5074217;28;19918;-78
2024/01/11 10:31:09;;;;;;;;;;;0.80;99.90;;;;;;5072964;28;19916;-77
2024/01/11 10:33:35;;;;;;;;;;;0.90;99.90;;;;;;5072410;28;19912;-82
2024/01/11 10:36:01;;;;;;;;;;;1.00;99.90;;;;;;5070388;28;19908;-81
2024/01/11 10:38:28;;;;;;;;;;;1.00;99.90;;;;;;5053290;28;19966;-81
2024/01/11 10:40:55;;;;;;;;;;;1.10;99.90;;;;;;5073576;28;19962;-81
2024/01/11 10:43:21;;;;;;;;;;;1.10;99.90;;;;;;5069677;28;19954;-81
2024/01/11 10:45:48;;;;;;;;;;;1.10;99.90;;;;;;5072994;28;19912;-81
2024/01/11 10:48:14;;;;;;;;;;;1.20;99.90;;;;;;5072853;28;19912;-82
2024/01/11 10:50:49;;;;;;;;;;;1.30;99.90;;;;;;5050955;28;19912;-81
2024/01/11 10:53:17;;;;;;;;;;;1.30;99.90;;;;;;5071264;28;20372;-82
2024/01/11 10:55:43;;;;;;;;;;;1.30;99.90;;;;;;5073087;28;19969;-82
2024/01/11 10:58:10;;;;;;;;;;;1.40;99.90;;;;;;5055068;28;19923;-81
2024/01/11 11:00:36;;;;;;;;;;;1.40;99.90;;;;;;5072536;28;19912;-82
2024/01/11 11:03:02;;;;;;;;;;;1.30;99.90;;;;;;5073849;28;20337;-82
2024/01/11 11:05:31;;;;;;;;;;;1.40;99.90;;;;;;5072188;28;19917;-82
2024/01/11 11:07:57;;;;;;;;;;;1.50;99.90;;;;;;5071079;28;19914;-81
2024/01/11 11:10:23;;;;;;;;;;;1.50;99.90;;;;;;5053180;28;19942;-81
2024/01/11 11:12:49;;;;;;;;;;;1.60;99.90;;;;;;5072658;28;20284;-82
2024/01/11 11:15:15;;;;;;;;;;;1.60;99.90;;;;;;5072403;28;20372;-82
2024/01/11 11:17:41;;;;;;;;;;;1.60;99.90;;;;;;5071795;28;20361;-83
2024/01/11 11:20:08;;;;;;;;;;;1.50;99.90;;;;;;5071091;28;20470;-82
2024/01/11 11:22:34;;;;;;;;;;;1.50;99.90;;;;;;5070149;28;19919;-83
2024/01/11 11:25:05;;;;;;;;;;;1.50;99.90;;;;;;5072751;28;19912;-80
2024/01/11 11:27:30;;;;;;;;;;;1.50;99.90;;;;;;5068711;28;19909;-80
2024/01/11 11:29:56;;;;;;;;;;;1.50;99.90;;;;;;5072016;28;20011;-80
2024/01/11 11:32:34;;;;;;;;;;;1.70;99.90;;;;;;5069664;28;19908;-80
2024/01/11 11:35:00;;;;;;;;;;;1.80;99.90;;;;;;5066785;28;19912;-80
2024/01/11 11:37:25;;;;;;;;;;;1.90;99.90;;;;;;5051946;28;19970;-81
2024/01/11 11:39:51;;;;;;;;;;;2.00;99.90;;;;;;5072611;28;19913;-81
2024/01/11 11:42:16;;;;;;;;;;;2.10;99.90;;;;;;5053725;28;19914;-81
2024/01/11 11:44:50;;;;;;;;;;;2.00;99.90;;;;;;5071467;28;19912;-81
2024/01/11 11:47:19;;;;;;;;;;;2.10;99.90;;;;;;5069640;28;19963;-82
2024/01/11 11:50:04;;;;;;;;;;;2.10;99.90;;;;;;5070979;28;19912;-81
2024/01/11 11:52:31;;;;;;;;;;;2.20;99.90;;;;;;5071735;28;20392;-81
2024/01/11 11:54:57;;;;;;;;;;;2.10;99.90;;;;;;5067499;28;19908;-81
2024/01/11 11:57:24;;;;;;;;;;;2.10;99.90;;;;;;5071448;28;19921;-80
2024/01/11 11:59:49;;;;;;;;;;;2.10;99.90;;;;;;5070873;28;19912;-81
2024/01/11 12:02:16;;;;;;;;;;;2.00;99.90;;;;;;5070678;28;20291;-81
2024/01/11 12:04:46;;;;;;;;;;;2.00;99.90;;;;;;5070694;28;19916;-81
2024/01/11 12:07:11;;;;;;;;;;;2.00;99.90;;;;;;5059749;28;19983;-81
2024/01/11 12:09:37;;;;;;;;;;;2.10;99.90;;;;;;5068513;28;20023;-81
2024/01/11 12:12:03;;;;;;;;;;;2.10;99.90;;;;;;5052570;28;19908;-81
2024/01/11 12:14:28;;;;;;;;;;;2.20;99.90;;;;;;5069616;28;20007;-81
2024/01/11 12:16:57;;;;;;;;;;;2.20;99.90;;;;;;5052536;28;20341;-80
2024/01/11 12:19:23;;;;;;;;;;;2.20;99.90;;;;;;5070908;28;19908;-80
2024/01/11 12:21:49;;;;;;;;;;;2.20;99.90;;;;;;5053949;28;20653;-81
2024/01/11 12:24:15;;;;;;;;;;;2.20;99.90;;;;;;5052057;28;19923;-81
2024/01/11 12:26:41;;;;;;;;;;;2.30;99.90;;;;;;5053099;28;19909;-81
2024/01/11 12:29:06;;;;;;;;;;;2.30;99.90;;;;;;5071076;28;20011;-81
2024/01/11 12:31:32;;;;;;;;;;;2.30;99.90;;;;;;5053608;28;19923;-80
2024/01/11 12:33:57;;;;;;;;;;;2.40;99.90;;;;;;5053356;28;19958;-80
2024/01/11 12:36:23;;;;;;;;;;;2.40;99.90;;;;;;5069627;28;19916;-81
2024/01/11 12:38:50;;;;;;;;;;;2.40;99.90;;;;;;5051575;28;19914;-81
2024/01/11 12:41:16;;;;;;;;;;;2.40;99.90;;;;;;5052606;28;20364;-81
2024/01/11 12:43:44;;;;;;;;;;;2.50;99.90;;;;;;5067997;28;19916;-81
2024/01/11 12:46:10;;;;;;;;;;;2.50;99.90;;;;;;5052809;28;19916;-81
2024/01/11 12:48:35;;;;;;;;;;;2.60;99.90;;;;;;5071673;28;20271;-82
2024/01/11 12:51:02;;;;;;;;;;;2.70;99.90;;;;;;5071170;28;19915;-82
2024/01/11 12:53:28;;;;;;;;;;;2.80;99.90;;;;;;5052691;28;19908;-81
2024/01/11 12:56:10;;;;;;;;;;;2.80;99.90;;;;;;5051592;28;19919;-81
2024/01/11 12:58:38;;;;;;;;;;;2.90;99.90;;;;;;5062288;28;19916;-82
2024/01/11 13:01:04;;;;;;;;;;;2.80;99.90;;;;;;5052958;28;19961;-81
2024/01/11 13:03:30;;;;;;;;;;;2.90;99.90;;;;;;5071555;28;19999;-82
2024/01/11 13:05:59;;;;;;;;;;;2.90;99.90;;;;;;5053190;28;20002;-82
2024/01/11 13:08:24;;;;;;;;;;;2.90;99.90;;;;;;5052595;28;20460;-82
2024/01/11 13:10:50;;;;;;;;;;;2.90;99.90;;;;;;5069502;28;19920;-80
2024/01/11 13:13:15;;;;;;;;;;;2.90;99.90;;;;;;5052341;28;19916;-82
2024/01/11 13:15:41;;;;;;;;;;;2.90;99.90;;;;;;5071071;28;19999;-81
2024/01/11 13:18:07;;;;;;;;;;;3.10;99.90;;;;;;5052701;28;20288;-82
2024/01/11 13:20:33;;;;;;;;;;;3.30;99.90;;;;;;5052669;28;19916;-80
2024/01/11 13:23:15;;;;;;;;;;;4.50;99.90;;;;;;5070941;28;19911;-80
2024/01/11 13:25:44;;;;;;;;;;;5.80;99.90;;;;;;5062534;28;19953;-78
2024/01/11 13:28:13;;;;;;;;;;;6.20;99.90;;;;;;5051242;28;20007;-78
2024/01/11 13:30:42;;;;;;;;;;;7.10;99.90;;;;;;5071988;28;19965;-81
2024/01/11 13:33:08;;;;;;;;;;;7.30;99.90;;;;;;5071195;28;19909;-81
2024/01/11 13:35:37;;;;;;;;;;;7.30;99.90;;;;;;5070583;28;19919;-82
2024/01/11 13:38:03;;;;;;;;;;;7.90;99.90;;;;;;5052549;28;19931;-83
2024/01/11 13:40:29;;;;;;;;;;;8.10;99.90;;;;;;5074564;28;19913;-83
2024/01/11 13:42:55;;;;;;;;;;;8.40;99.90;;;;;;5072199;28;19912;-84
2024/01/11 13:45:21;;;;;;;;;;;8.60;99.90;;;;;;5070086;28;19908;-82
2024/01/11 13:47:46;;;;;;;;;;;8.60;99.90;;;;;;5070429;28;19994;-83
2024/01/11 13:50:12;;;;;;;;;;;8.90;99.90;;;;;;5052262;28;19908;-81
2024/01/11 13:52:37;;;;;;;;;;;9.00;99.90;;;;;;5050857;28;19908;-82
2024/01/11 13:55:03;;;;;;;;;;;8.90;99.90;;;;;;5068172;28;19912;-82
2024/01/11 13:57:29;;;;;;;;;;;8.60;99.90;;;;;;5070289;28;19916;-82
2024/01/11 13:59:54;;;;;;;;;;;8.60;99.90;;;;;;5068105;28;20426;-84
2024/01/11 14:02:20;;;;;;;;;;;8.60;99.90;;;;;;5064850;28;19908;-82
2024/01/11 14:04:45;;;;;;;;;;;8.60;99.90;;;;;;5070121;28;19919;-83
2024/01/11 14:07:11;;;;;;;;;;;8.40;99.90;;;;;;5069039;28;19908;-82
2024/01/11 14:09:36;;;;;;;;;;;8.40;99.90;;;;;;5048994;28;19916;-82
2024/01/11 14:12:01;;;;;;;;;;;8.40;99.90;;;;;;5049407;28;19916;-79
2024/01/11 14:14:27;;;;;;;;;;;8.20;99.90;;;;;;5069585;28;19908;-79
2024/01/11 14:16:52;;;;;;;;;;;8.10;99.90;;;;;;5069936;28;20296;-82